sensor_id;sensor_type;location;lat;lon;timestamp;pressure;altitude;pressure_sealevel;temperature;humidity
43838;BME280;65998;46.256;7.534;2023-06-26T00:02:18;87453.94;;;20.96;59.52
43838;BME280;65998;46.256;7.534;2023-06-26T00:04:44;87457.41;;;20.96;59.48
43838;BME280;65998;46.256;7.534;2023-06-26T00:07:10;87453.94;;;20.96;59.51
43838;BME280;65998;46.256;7.534;2023-06-26T00:09:36;87458.84;;;20.95;59.65
43838;BME280;65998;46.256;7.534;2023-06-26T00:12:03;87456.72;;;20.96;59.40
43838;BME280;65998;46.256;7.534;2023-06-26T00:14:28;87456.03;;;20.95;59.59
43838;BME280;65998;46.256;7.534;2023-06-26T00:16:54;87461.63;;;20.95;59.41
43838;BME280;65998;46.256;7.534;2023-06-26T00:19:20;87459.50;;;20.96;59.81
43838;BME280;65998;46.256;7.534;2023-06-26T00:21:46;87463.00;;;20.96;59.65
43838;BME280;65998;46.256;7.534;2023-06-26T00:24:13;87461.56;;;20.97;59.67
43838;BME280;65998;46.256;7.534;2023-06-26T00:26:39;87457.41;;;20.96;59.47
43838;BME280;65998;46.256;7.534;2023-06-26T00:29:04;87459.50;;;20.96;59.40
43838;BME280;65998;46.256;7.534;2023-06-26T00:31:30;87456.72;;;20.96;59.39
43838;BME280;65998;46.256;7.534;2023-06-26T00:33:56;87460.88;;;20.97;59.64
43838;BME280;65998;46.256;7.534;2023-06-26T00:36:22;87464.34;;;20.97;59.42
43838;BME280;65998;46.256;7.534;2023-06-26T00:38:49;87457.41;;;20.96;59.53
43838;BME280;65998;46.256;7.534;2023-06-26T00:41:15;87460.88;;;20.97;59.59
43838;BME280;65998;46.256;7.534;2023-06-26T00:43:41;87463.00;;;20.96;59.48
43838;BME280;65998;46.256;7.534;2023-06-26T00:46:12;87458.09;;;20.97;59.36
43838;BME280;65998;46.256;7.534;2023-06-26T00:48:39;87460.88;;;20.97;59.36
43838;BME280;65998;46.256;7.534;2023-06-26T00:51:06;87459.50;;;20.96;59.35
43838;BME280;65998;46.256;7.534;2023-06-26T00:53:33;87463.00;;;20.96;59.39
43838;BME280;65998;46.256;7.534;2023-06-26T00:56:00;87465.78;;;20.96;59.36
43838;BME280;65998;46.256;7.534;2023-06-26T00:58:26;87470.69;;;20.96;59.48
43838;BME280;65998;46.256;7.534;2023-06-26T01:00:52;87466.47;;;20.97;59.49
43838;BME280;65998;46.256;7.534;2023-06-26T01:03:19;87462.91;;;20.98;59.36
43838;BME280;65998;46.256;7.534;2023-06-26T01:05:46;87464.34;;;20.97;59.48
43838;BME280;65998;46.256;7.534;2023-06-26T01:08:13;87466.47;;;20.97;59.40
43838;BME280;65998;46.256;7.534;2023-06-26T01:10:40;87465.78;;;20.96;59.30
43838;BME280;65998;46.256;7.534;2023-06-26T01:13:05;87460.19;;;20.96;59.38
43838;BME280;65998;46.256;7.534;2023-06-26T01:15:31;87463.00;;;20.96;59.53
43838;BME280;65998;46.256;7.534;2023-06-26T01:17:58;87461.56;;;20.97;59.49
43838;BME280;65998;46.256;7.534;2023-06-26T01:20:24;87468.56;;;20.96;59.47
43838;BME280;65998;46.256;7.534;2023-06-26T01:28:18;87466.47;;;20.97;59.16
43838;BME280;65998;46.256;7.534;2023-06-26T01:30:45;87469.25;;;20.97;59.29
43838;BME280;65998;46.256;7.534;2023-06-26T01:33:12;87472.03;;;20.97;59.22
43838;BME280;65998;46.256;7.534;2023-06-26T01:35:40;87474.09;;;20.98;59.56
43838;BME280;65998;46.256;7.534;2023-06-26T01:40:38;87474.16;;;20.96;59.46
43838;BME280;65998;46.256;7.534;2023-06-26T01:43:06;87472.03;;;20.97;59.54
43838;BME280;65998;46.256;7.534;2023-06-26T01:45:36;87464.44;;;20.95;59.38
43838;BME280;65998;46.256;7.534;2023-06-26T01:48:03;87468.56;;;20.96;59.38
43838;BME280;65998;46.256;7.534;2023-06-26T01:50:31;87463.00;;;20.96;59.05
43838;BME280;65998;46.256;7.534;2023-06-26T01:53:08;87463.66;;;20.97;59.03
43838;BME280;65998;46.256;7.534;2023-06-26T01:58:45;87466.47;;;20.97;59.10
43838;BME280;65998;46.256;7.534;2023-06-26T02:01:13;87467.91;;;20.96;59.18
43838;BME280;65998;46.256;7.534;2023-06-26T02:03:39;87474.16;;;20.96;59.51
43838;BME280;65998;46.256;7.534;2023-06-26T02:06:04;87475.59;;;20.95;59.28
43838;BME280;65998;46.256;7.534;2023-06-26T02:08:30;87478.41;;;20.95;59.17
43838;BME280;65998;46.256;7.534;2023-06-26T02:10:56;87481.88;;;20.96;59.48
43838;BME280;65998;46.256;7.534;2023-06-26T02:13:22;87488.88;;;20.95;59.02
43838;BME280;65998;46.256;7.534;2023-06-26T02:15:48;87481.19;;;20.95;59.42
43838;BME280;65998;46.256;7.534;2023-06-26T02:18:14;87485.41;;;20.94;59.41
43838;BME280;65998;46.256;7.534;2023-06-26T02:20:40;87475.59;;;20.95;59.31
43838;BME280;65998;46.256;7.534;2023-06-26T02:23:05;87480.50;;;20.95;59.24
43838;BME280;65998;46.256;7.534;2023-06-26T02:25:31;87480.50;;;20.95;59.42
43838;BME280;65998;46.256;7.534;2023-06-26T02:27:57;87486.09;;;20.95;59.44
43838;BME280;65998;46.256;7.534;2023-06-26T02:30:23;87486.09;;;20.95;59.19
43838;BME280;65998;46.256;7.534;2023-06-26T02:32:48;87480.50;;;20.95;59.41
43838;BME280;65998;46.256;7.534;2023-06-26T02:35:14;87480.50;;;20.95;59.12
43838;BME280;65998;46.256;7.534;2023-06-26T02:37:40;87478.41;;;20.95;59.00
43838;BME280;65998;46.256;7.534;2023-06-26T02:40:06;87479.06;;;20.96;58.96
43838;BME280;65998;46.256;7.534;2023-06-26T02:42:32;87473.56;;;20.94;59.15
43838;BME280;65998;46.256;7.534;2023-06-26T02:44:59;87482.63;;;20.94;59.37
43838;BME280;65998;46.256;7.534;2023-06-26T02:47:24;87474.25;;;20.94;59.14
43838;BME280;65998;46.256;7.534;2023-06-26T02:49:50;87476.34;;;20.94;59.01
43838;BME280;65998;46.256;7.534;2023-06-26T02:52:16;87471.44;;;20.94;59.29
43838;BME280;65998;46.256;7.534;2023-06-26T02:54:42;87474.91;;;20.95;59.05
43838;BME280;65998;46.256;7.534;2023-06-26T02:57:07;87474.25;;;20.94;59.17
43838;BME280;65998;46.256;7.534;2023-06-26T02:59:34;87476.34;;;20.94;59.22
43838;BME280;65998;46.256;7.534;2023-06-26T03:01:59;87473.56;;;20.94;59.02
43838;BME280;65998;46.256;7.534;2023-06-26T03:04:25;87472.22;;;20.93;58.95
43838;BME280;65998;46.256;7.534;2023-06-26T03:06:51;87473.56;;;20.94;59.07
43838;BME280;65998;46.256;7.534;2023-06-26T03:09:17;87478.47;;;20.93;58.91
43838;BME280;65998;46.256;7.534;2023-06-26T03:11:42;87473.56;;;20.94;58.99
43838;BME280;65998;46.256;7.534;2023-06-26T03:14:08;87479.16;;;20.94;58.91
43838;BME280;65998;46.256;7.534;2023-06-26T03:16:34;87477.03;;;20.94;58.96
43838;BME280;65998;46.256;7.534;2023-06-26T03:19:00;87481.94;;;20.94;59.02
43838;BME280;65998;46.256;7.534;2023-06-26T03:21:26;87481.94;;;20.94;59.09
43838;BME280;65998;46.256;7.534;2023-06-26T03:23:51;87475.00;;;20.93;59.33
43838;BME280;65998;46.256;7.534;2023-06-26T03:26:17;87484.06;;;20.93;59.26
43838;BME280;65998;46.256;7.534;2023-06-26T03:28:43;87478.47;;;20.93;59.32
43838;BME280;65998;46.256;7.534;2023-06-26T03:31:09;87482.69;;;20.92;59.22
43838;BME280;65998;46.256;7.534;2023-06-26T03:33:35;87486.19;;;20.93;59.29
43838;BME280;65998;46.256;7.534;2023-06-26T03:36:00;87486.19;;;20.93;59.18
43838;BME280;65998;46.256;7.534;2023-06-26T03:38:26;87480.59;;;20.93;58.86
43838;BME280;65998;46.256;7.534;2023-06-26T03:40:52;87488.97;;;20.93;59.27
43838;BME280;65998;46.256;7.534;2023-06-26T03:43:18;87479.91;;;20.92;58.99
43838;BME280;65998;46.256;7.534;2023-06-26T03:45:43;87479.22;;;20.92;59.30
43838;BME280;65998;46.256;7.534;2023-06-26T03:48:09;87487.63;;;20.92;59.13
43838;BME280;65998;46.256;7.534;2023-06-26T03:50:35;87479.91;;;20.92;59.07
43838;BME280;65998;46.256;7.534;2023-06-26T03:53:01;87479.91;;;20.92;59.22
43838;BME280;65998;46.256;7.534;2023-06-26T03:55:27;87482.69;;;20.92;59.01
43838;BME280;65998;46.256;7.534;2023-06-26T03:57:52;87486.94;;;20.91;58.96
43838;BME280;65998;46.256;7.534;2023-06-26T04:00:18;87488.28;;;20.92;58.95
43838;BME280;65998;46.256;7.534;2023-06-26T04:02:44;87492.53;;;20.91;59.01
43838;BME280;65998;46.256;7.534;2023-06-26T04:05:10;87494.63;;;20.91;58.86
43838;BME280;65998;46.256;7.534;2023-06-26T04:07:37;87486.94;;;20.91;59.18
43838;BME280;65998;46.256;7.534;2023-06-26T04:10:03;87492.53;;;20.91;58.90
43838;BME280;65998;46.256;7.534;2023-06-26T04:12:29;87503.69;;;20.91;59.10
43838;BME280;65998;46.256;7.534;2023-06-26T04:14:55;87498.09;;;20.91;58.89
43838;BME280;65998;46.256;7.534;2023-06-26T04:17:21;87497.44;;;20.91;59.14
43838;BME280;65998;46.256;7.534;2023-06-26T04:19:47;87506.50;;;20.91;58.86
43838;BME280;65998;46.256;7.534;2023-06-26T04:22:13;87502.34;;;20.90;58.89
43838;BME280;65998;46.256;7.534;2023-06-26T04:24:38;87503.69;;;20.91;58.85
43838;BME280;65998;46.256;7.534;2023-06-26T04:27:05;87502.34;;;20.90;59.11
43838;BME280;65998;46.256;7.534;2023-06-26T04:29:30;87507.94;;;20.90;58.79
43838;BME280;65998;46.256;7.534;2023-06-26T04:31:56;87512.84;;;20.90;58.76
43838;BME280;65998;46.256;7.534;2023-06-26T04:34:22;87510.03;;;20.90;59.20
43838;BME280;65998;46.256;7.534;2023-06-26T04:36:48;87511.41;;;20.91;58.95
43838;BME280;65998;46.256;7.534;2023-06-26T04:39:14;87516.97;;;20.91;59.11
43838;BME280;65998;46.256;7.534;2023-06-26T04:41:40;87505.13;;;20.90;58.97
43838;BME280;65998;46.256;7.534;2023-06-26T04:44:06;87510.03;;;20.90;59.20
43838;BME280;65998;46.256;7.534;2023-06-26T04:46:32;87516.31;;;20.90;58.91
43838;BME280;65998;46.256;7.534;2023-06-26T04:48:58;87516.97;;;20.91;58.76
43838;BME280;65998;46.256;7.534;2023-06-26T04:51:25;87519.78;;;20.91;58.93
43838;BME280;65998;46.256;7.534;2023-06-26T04:53:50;87514.94;;;20.89;58.97
43838;BME280;65998;46.256;7.534;2023-06-26T04:56:16;87518.41;;;20.90;58.82
43838;BME280;65998;46.256;7.534;2023-06-26T04:58:42;87516.31;;;20.90;58.97
43838;BME280;65998;46.256;7.534;2023-06-26T05:01:08;87512.84;;;20.90;58.75
43838;BME280;65998;46.256;7.534;2023-06-26T05:03:33;87510.03;;;20.90;58.66
43838;BME280;65998;46.256;7.534;2023-06-26T05:05:59;87510.03;;;20.90;58.70
43838;BME280;65998;46.256;7.534;2023-06-26T05:08:26;87510.03;;;20.90;58.65
43838;BME280;65998;46.256;7.534;2023-06-26T05:10:52;87512.16;;;20.89;58.90
43838;BME280;65998;46.256;7.534;2023-06-26T05:13:17;87509.38;;;20.89;58.94
43838;BME280;65998;46.256;7.534;2023-06-26T05:15:44;87510.72;;;20.90;58.86
43838;BME280;65998;46.256;7.534;2023-06-26T05:18:10;87503.78;;;20.89;58.76
43838;BME280;65998;46.256;7.534;2023-06-26T05:20:37;87504.44;;;20.90;58.77
43838;BME280;65998;46.256;7.534;2023-06-26T05:23:03;87508.69;;;20.89;58.62
43838;BME280;65998;46.256;7.534;2023-06-26T05:25:31;87513.50;;;20.90;58.95
43838;BME280;65998;46.256;7.534;2023-06-26T05:27:58;87512.16;;;20.89;58.94
43838;BME280;65998;46.256;7.534;2023-06-26T05:30:24;87507.94;;;20.90;59.04
43838;BME280;65998;46.256;7.534;2023-06-26T05:32:51;87514.28;;;20.89;58.66
43838;BME280;65998;46.256;7.534;2023-06-26T05:35:18;87514.94;;;20.89;58.84
43838;BME280;65998;46.256;7.534;2023-06-26T05:37:46;87514.19;;;20.91;58.55
43838;BME280;65998;46.256;7.534;2023-06-26T05:40:14;87511.41;;;20.91;58.65
43838;BME280;65998;46.256;7.534;2023-06-26T05:42:40;87516.97;;;20.91;58.58
43838;BME280;65998;46.256;7.534;2023-06-26T05:45:07;87516.31;;;20.90;58.77
43838;BME280;65998;46.256;7.534;2023-06-26T05:47:33;87514.88;;;20.91;58.82
43838;BME280;65998;46.256;7.534;2023-06-26T05:49:59;87517.66;;;20.91;58.48
43838;BME280;65998;46.256;7.534;2023-06-26T05:52:25;87512.06;;;20.91;58.78
43838;BME280;65998;46.256;7.534;2023-06-26T05:54:52;87518.34;;;20.92;58.57
43838;BME280;65998;46.256;7.534;2023-06-26T05:57:19;87518.34;;;20.92;58.55
43838;BME280;65998;46.256;7.534;2023-06-26T05:59:45;87507.16;;;20.92;58.76
43838;BME280;65998;46.256;7.534;2023-06-26T06:02:12;87512.75;;;20.92;58.52
43838;BME280;65998;46.256;7.534;2023-06-26T06:04:38;87519.69;;;20.93;58.47
43838;BME280;65998;46.256;7.534;2023-06-26T06:07:04;87519.69;;;20.93;58.84
43838;BME280;65998;46.256;7.534;2023-06-26T06:09:30;87512.00;;;20.93;58.61
43838;BME280;65998;46.256;7.534;2023-06-26T06:11:55;87514.78;;;20.93;58.37
43838;BME280;65998;46.256;7.534;2023-06-26T06:14:21;87521.06;;;20.94;58.71
43838;BME280;65998;46.256;7.534;2023-06-26T06:16:47;87510.56;;;20.94;58.44
43838;BME280;65998;46.256;7.534;2023-06-26T06:19:13;87518.19;;;20.96;58.48
43838;BME280;65998;46.256;7.534;2023-06-26T06:21:39;87504.91;;;20.96;58.62
43838;BME280;65998;46.256;7.534;2023-06-26T06:24:05;87510.47;;;20.96;58.62
43838;BME280;65998;46.256;7.534;2023-06-26T06:26:31;87505.56;;;20.97;58.56
43838;BME280;65998;46.256;7.534;2023-06-26T06:28:57;87507.59;;;20.98;58.60
43838;BME280;65998;46.256;7.534;2023-06-26T06:31:22;87508.28;;;20.99;58.58
43838;BME280;65998;46.256;7.534;2023-06-26T06:33:48;87502.69;;;20.99;58.58
43838;BME280;65998;46.256;7.534;2023-06-26T06:36:14;87504.06;;;21.00;58.44
43838;BME280;65998;46.256;7.534;2023-06-26T06:38:43;87500.50;;;21.01;58.50
43838;BME280;65998;46.256;7.534;2023-06-26T06:41:09;87508.13;;;21.03;58.45
43838;BME280;65998;46.256;7.534;2023-06-26T06:43:35;87508.13;;;21.03;58.23
43838;BME280;65998;46.256;7.534;2023-06-26T06:46:01;87500.44;;;21.03;58.17
43838;BME280;65998;46.256;7.534;2023-06-26T06:48:28;87503.22;;;21.03;58.03
43838;BME280;65998;46.256;7.534;2023-06-26T06:50:54;87506.69;;;21.04;58.20
43838;BME280;65998;46.256;7.534;2023-06-26T06:53:20;87494.06;;;21.05;58.31
43838;BME280;65998;46.256;7.534;2023-06-26T06:55:46;87494.75;;;21.06;58.02
43838;BME280;65998;46.256;7.534;2023-06-26T06:58:12;87489.84;;;21.06;58.02
43838;BME280;65998;46.256;7.534;2023-06-26T07:00:38;87505.19;;;21.07;58.00
43838;BME280;65998;46.256;7.534;2023-06-26T07:03:04;87496.78;;;21.07;57.82
43838;BME280;65998;46.256;7.534;2023-06-26T07:05:29;87501.63;;;21.09;57.80
43838;BME280;65998;46.256;7.534;2023-06-26T07:07:55;87507.88;;;21.09;57.99
43838;BME280;65998;46.256;7.534;2023-06-26T07:10:21;87502.97;;;21.10;58.19
43838;BME280;65998;46.256;7.534;2023-06-26T07:12:47;87495.28;;;21.10;58.12
43838;BME280;65998;46.256;7.534;2023-06-26T07:15:13;87493.84;;;21.11;57.83
43838;BME280;65998;46.256;7.534;2023-06-26T07:17:39;87492.41;;;21.12;57.69
43838;BME280;65998;46.256;7.534;2023-06-26T07:20:05;87490.97;;;21.13;58.03
43838;BME280;65998;46.256;7.534;2023-06-26T07:22:32;87500.69;;;21.14;57.92
43838;BME280;65998;46.256;7.534;2023-06-26T07:24:57;87495.13;;;21.14;57.71
43838;BME280;65998;46.256;7.534;2023-06-26T07:27:23;87499.94;;;21.16;58.06
43838;BME280;65998;46.256;7.534;2023-06-26T07:29:49;87495.72;;;21.17;57.66
43838;BME280;65998;46.256;7.534;2023-06-26T07:32:15;87490.81;;;21.17;57.98
43838;BME280;65998;46.256;7.534;2023-06-26T07:34:40;87490.81;;;21.17;57.91
43838;BME280;65998;46.256;7.534;2023-06-26T07:37:07;87491.41;;;21.20;57.67
43838;BME280;65998;46.256;7.534;2023-06-26T07:39:33;87489.28;;;21.20;57.79
43838;BME280;65998;46.256;7.534;2023-06-26T07:41:59;87492.75;;;21.21;57.73
43838;BME280;65998;46.256;7.534;2023-06-26T07:44:25;87491.31;;;21.22;57.87
43838;BME280;65998;46.256;7.534;2023-06-26T07:46:51;87488.53;;;21.22;57.53
43838;BME280;65998;46.256;7.534;2023-06-26T07:49:16;87483.63;;;21.22;57.63
43838;BME280;65998;46.256;7.534;2023-06-26T07:51:42;87489.22;;;21.22;57.55
43838;BME280;65998;46.256;7.534;2023-06-26T07:54:08;87482.88;;;21.24;57.54
43838;BME280;65998;46.256;7.534;2023-06-26T07:56:54;87488.38;;;21.26;57.53
43838;BME280;65998;46.256;7.534;2023-06-26T07:59:21;87482.13;;;21.25;57.72
43838;BME280;65998;46.256;7.534;2023-06-26T08:01:49;87489.06;;;21.26;57.52
43838;BME280;65998;46.256;7.534;2023-06-26T08:04:15;87481.34;;;21.27;57.57
43838;BME280;65998;46.256;7.534;2023-06-26T08:06:41;87487.63;;;21.27;57.50
43838;BME280;65998;46.256;7.534;2023-06-26T08:09:07;87479.91;;;21.28;57.57
43838;BME280;65998;46.256;7.534;2023-06-26T08:11:33;87481.28;;;21.29;57.18
43838;BME280;65998;46.256;7.534;2023-06-26T08:13:59;87479.84;;;21.30;57.23
43838;BME280;65998;46.256;7.534;2023-06-26T08:16:26;87477.03;;;21.30;57.40
43838;BME280;65998;46.256;7.534;2023-06-26T08:18:51;87472.88;;;21.29;57.27
43838;BME280;65998;46.256;7.534;2023-06-26T08:21:17;87476.38;;;21.29;57.37
43838;BME280;65998;46.256;7.534;2023-06-26T08:23:43;87464.50;;;21.29;57.08
43838;BME280;65998;46.256;7.534;2023-06-26T08:26:09;87465.88;;;21.30;57.44
43838;BME280;65998;46.256;7.534;2023-06-26T08:28:35;87458.16;;;21.30;57.42
43838;BME280;65998;46.256;7.534;2023-06-26T08:31:01;87465.94;;;21.28;57.50
43838;BME280;65998;46.256;7.534;2023-06-26T08:33:27;87461.78;;;21.27;57.43
43838;BME280;65998;46.256;7.534;2023-06-26T08:35:53;87457.63;;;21.26;57.27
43838;BME280;65998;46.256;7.534;2023-06-26T08:38:18;87456.97;;;21.25;57.24
43838;BME280;65998;46.256;7.534;2023-06-26T08:40:44;87452.13;;;21.24;57.24
43838;BME280;65998;46.256;7.534;2023-06-26T08:43:10;87454.94;;;21.24;57.21
43838;BME280;65998;46.256;7.534;2023-06-26T08:45:36;87457.03;;;21.23;57.21
43838;BME280;65998;46.256;7.534;2023-06-26T08:48:03;87442.38;;;21.23;57.59
43838;BME280;65998;46.256;7.534;2023-06-26T08:50:34;87450.09;;;21.22;57.15
43838;BME280;65998;46.256;7.534;2023-06-26T08:53:40;87450.78;;;21.23;57.22
43838;BME280;65998;46.256;7.534;2023-06-26T08:56:09;87447.38;;;21.20;57.41
43838;BME280;65998;46.256;7.534;2023-06-26T08:58:36;87445.25;;;21.21;57.28
43838;BME280;65998;46.256;7.534;2023-06-26T09:01:04;87450.84;;;21.21;57.36
43838;BME280;65998;46.256;7.534;2023-06-26T09:05:56;87448.13;;;21.19;57.23
43838;BME280;65998;46.256;7.534;2023-06-26T09:10:48;87448.13;;;21.19;57.51
43838;BME280;65998;46.256;7.534;2023-06-26T09:13:14;87447.44;;;21.18;57.32
43838;BME280;65998;46.256;7.534;2023-06-26T09:15:43;87440.50;;;21.17;57.54
43838;BME280;65998;46.256;7.534;2023-06-26T09:18:09;87440.50;;;21.17;57.43
43838;BME280;65998;46.256;7.534;2023-06-26T09:20:36;87442.63;;;21.17;57.44
43838;BME280;65998;46.256;7.534;2023-06-26T09:23:02;87444.06;;;21.16;57.30
43838;BME280;65998;46.256;7.534;2023-06-26T09:25:29;87441.94;;;21.16;57.47
43838;BME280;65998;46.256;7.534;2023-06-26T09:27:55;87440.50;;;21.17;57.54
43838;BME280;65998;46.256;7.534;2023-06-26T09:30:22;87442.63;;;21.17;57.59
43838;BME280;65998;46.256;7.534;2023-06-26T09:32:48;87445.41;;;21.17;57.38
43838;BME280;65998;46.256;7.534;2023-06-26T09:35:14;87440.59;;;21.15;57.25
43838;BME280;65998;46.256;7.534;2023-06-26T09:37:40;87439.13;;;21.16;57.66
43838;BME280;65998;46.256;7.534;2023-06-26T09:40:06;87440.59;;;21.15;57.47
43838;BME280;65998;46.256;7.534;2023-06-26T09:42:32;87446.84;;;21.16;57.58
43838;BME280;65998;46.256;7.534;2023-06-26T09:44:58;87444.06;;;21.16;57.71
43838;BME280;65998;46.256;7.534;2023-06-26T09:47:25;87433.56;;;21.16;57.68
43838;BME280;65998;46.256;7.534;2023-06-26T09:49:51;87434.31;;;21.15;57.41
43838;BME280;65998;46.256;7.534;2023-06-26T09:52:17;87431.44;;;21.17;57.40
43838;BME280;65998;46.256;7.534;2023-06-26T09:54:44;87433.56;;;21.16;57.45
43838;BME280;65998;46.256;7.534;2023-06-26T09:57:14;87433.56;;;21.16;57.64
43838;BME280;65998;46.256;7.534;2023-06-26T09:59:43;87431.44;;;21.17;57.50
43838;BME280;65998;46.256;7.534;2023-06-26T10:02:09;87433.56;;;21.16;57.47
43838;BME280;65998;46.256;7.534;2023-06-26T10:04:35;87434.22;;;21.17;57.60
43838;BME280;65998;46.256;7.534;2023-06-26T10:07:03;87434.91;;;21.17;57.45
43838;BME280;65998;46.256;7.534;2023-06-26T10:09:30;87429.41;;;21.15;57.52
43838;BME280;65998;46.256;7.534;2023-06-26T10:11:59;87430.00;;;21.18;57.83
43838;BME280;65998;46.256;7.534;2023-06-26T10:14:27;87423.06;;;21.17;57.85
43838;BME280;65998;46.256;7.534;2023-06-26T10:16:58;87428.66;;;21.17;57.90
43838;BME280;65998;46.256;7.534;2023-06-26T10:19:26;87436.94;;;21.19;57.78
43838;BME280;65998;46.256;7.534;2023-06-26T10:21:53;87434.91;;;21.17;57.86
43838;BME280;65998;46.256;7.534;2023-06-26T10:24:23;87432.78;;;21.18;57.85
43838;BME280;65998;46.256;7.534;2023-06-26T10:26:55;87438.38;;;21.18;57.52
43838;BME280;65998;46.256;7.534;2023-06-26T10:29:23;87443.28;;;21.17;57.98
43838;BME280;65998;46.256;7.534;2023-06-26T10:31:52;87441.19;;;21.18;57.77
43838;BME280;65998;46.256;7.534;2023-06-26T10:34:20;87437.69;;;21.17;57.90
43838;BME280;65998;46.256;7.534;2023-06-26T10:36:46;87440.50;;;21.17;57.64
43838;BME280;65998;46.256;7.534;2023-06-26T10:39:12;87443.28;;;21.17;57.88
43838;BME280;65998;46.256;7.534;2023-06-26T10:41:41;87436.94;;;21.19;57.73
43838;BME280;65998;46.256;7.534;2023-06-26T10:44:09;87441.84;;;21.18;58.05
43838;BME280;65998;46.256;7.534;2023-06-26T10:49:14;87439.75;;;21.19;57.83
43838;BME280;65998;46.256;7.534;2023-06-26T10:51:46;87438.31;;;21.20;58.04
43838;BME280;65998;46.256;7.534;2023-06-26T10:54:15;87434.16;;;21.19;58.00
43838;BME280;65998;46.256;7.534;2023-06-26T10:56:46;87441.78;;;21.20;57.93
43838;BME280;65998;46.256;7.534;2023-06-26T10:59:23;87438.97;;;21.20;57.77
43838;BME280;65998;46.256;7.534;2023-06-26T11:01:57;87441.78;;;21.20;57.95
43838;BME280;65998;46.256;7.534;2023-06-26T11:04:50;87430.59;;;21.20;58.15
43838;BME280;65998;46.256;7.534;2023-06-26T11:07:23;87436.84;;;21.21;58.11
43838;BME280;65998;46.256;7.534;2023-06-26T11:10:00;87439.66;;;21.21;57.94
43838;BME280;65998;46.256;7.534;2023-06-26T11:12:39;87433.34;;;21.22;57.97
43838;BME280;65998;46.256;7.534;2023-06-26T11:15:13;87434.06;;;21.21;58.05
43838;BME280;65998;46.256;7.534;2023-06-26T11:17:39;87438.22;;;21.22;58.28
43838;BME280;65998;46.256;7.534;2023-06-26T11:20:15;87436.84;;;21.21;58.25
43838;BME280;65998;46.256;7.534;2023-06-26T11:22:42;87434.06;;;21.21;58.26
43838;BME280;65998;46.256;7.534;2023-06-26T11:25:09;87443.81;;;21.22;58.28
43838;BME280;65998;46.256;7.534;2023-06-26T11:27:42;87438.22;;;21.22;58.23
43838;BME280;65998;46.256;7.534;2023-06-26T11:30:10;87444.50;;;21.22;58.47
43838;BME280;65998;46.256;7.534;2023-06-26T11:32:37;87438.22;;;21.22;58.17
43838;BME280;65998;46.256;7.534;2023-06-26T11:35:04;87444.50;;;21.22;58.25
43838;BME280;65998;46.256;7.534;2023-06-26T11:37:33;87440.28;;;21.23;58.34
43838;BME280;65998;46.256;7.534;2023-06-26T11:40:00;87436.13;;;21.22;58.42
43838;BME280;65998;46.256;7.534;2023-06-26T11:42:41;87439.59;;;21.23;58.61
43838;BME280;65998;46.256;7.534;2023-06-26T11:45:07;87436.13;;;21.22;58.58
43838;BME280;65998;46.256;7.534;2023-06-26T11:47:33;87439.59;;;21.23;58.31
43838;BME280;65998;46.256;7.534;2023-06-26T11:49:59;87435.38;;;21.24;58.35
43838;BME280;65998;46.256;7.534;2023-06-26T11:52:24;87436.03;;;21.24;58.34
43838;BME280;65998;46.256;7.534;2023-06-26T11:54:50;87431.13;;;21.25;58.74
43838;BME280;65998;46.256;7.534;2023-06-26T11:57:16;87429.78;;;21.24;58.44
43838;BME280;65998;46.256;7.534;2023-06-26T11:59:42;87429.78;;;21.24;58.62
43838;BME280;65998;46.256;7.534;2023-06-26T12:02:14;87426.91;;;21.26;58.64
43838;BME280;65998;46.256;7.534;2023-06-26T12:04:42;87424.09;;;21.26;58.35
43838;BME280;65998;46.256;7.534;2023-06-26T12:07:09;87424.78;;;21.26;58.68
43838;BME280;65998;46.256;7.534;2023-06-26T12:09:44;87428.25;;;21.27;58.58
43838;BME280;65998;46.256;7.534;2023-06-26T12:12:12;87421.97;;;21.26;58.45
43838;BME280;65998;46.256;7.534;2023-06-26T12:14:39;87416.41;;;21.26;58.79
43838;BME280;65998;46.256;7.534;2023-06-26T12:17:09;87427.56;;;21.26;58.42
43838;BME280;65998;46.256;7.534;2023-06-26T12:19:37;87420.53;;;21.27;58.51
43838;BME280;65998;46.256;7.534;2023-06-26T12:22:06;87423.34;;;21.27;58.58
43838;BME280;65998;46.256;7.534;2023-06-26T12:24:34;87424.03;;;21.28;58.65
43838;BME280;65998;46.256;7.534;2023-06-26T12:27:01;87417.75;;;21.27;58.50
43838;BME280;65998;46.256;7.534;2023-06-26T12:29:33;87420.47;;;21.29;58.79
43838;BME280;65998;46.256;7.534;2023-06-26T12:31:59;87420.47;;;21.29;58.79
43838;BME280;65998;46.256;7.534;2023-06-26T12:34:33;87421.13;;;21.30;58.86
43838;BME280;65998;46.256;7.534;2023-06-26T12:37:04;87416.91;;;21.31;58.63
43838;BME280;65998;46.256;7.534;2023-06-26T12:39:54;87419.03;;;21.30;58.62
43838;BME280;65998;46.256;7.534;2023-06-26T12:42:25;87417.59;;;21.31;58.86
43838;BME280;65998;46.256;7.534;2023-06-26T12:44:52;87408.53;;;21.31;58.79
43838;BME280;65998;46.256;7.534;2023-06-26T12:47:27;87407.06;;;21.32;58.86
43838;BME280;65998;46.256;7.534;2023-06-26T12:49:53;87411.31;;;21.31;58.59
43838;BME280;65998;46.256;7.534;2023-06-26T12:52:20;87408.53;;;21.31;58.69
43838;BME280;65998;46.256;7.534;2023-06-26T12:54:51;87400.81;;;21.31;58.69
43838;BME280;65998;46.256;7.534;2023-06-26T12:57:17;87400.81;;;21.31;59.02
43838;BME280;65998;46.256;7.534;2023-06-26T12:59:43;87398.69;;;21.32;59.04
43838;BME280;65998;46.256;7.534;2023-06-26T13:02:09;87397.94;;;21.33;58.87
43838;BME280;65998;46.256;7.534;2023-06-26T13:04:35;87398.59;;;21.34;58.95
43838;BME280;65998;46.256;7.534;2023-06-26T13:07:01;87397.25;;;21.33;58.84
43838;BME280;65998;46.256;7.534;2023-06-26T13:09:32;87393.00;;;21.34;58.77
43838;BME280;65998;46.256;7.534;2023-06-26T13:11:59;87389.53;;;21.33;58.83
43838;BME280;65998;46.256;7.534;2023-06-26T13:14:25;87388.09;;;21.34;59.14
43838;BME280;65998;46.256;7.534;2023-06-26T13:16:51;87390.91;;;21.34;58.96
43838;BME280;65998;46.256;7.534;2023-06-26T13:19:17;87383.19;;;21.35;59.00